createdAt,value
2022-08-05T00:00:02.641Z,1016.5
2022-08-05T00:01:29.593Z,1016.5
2022-08-05T00:02:12.483Z,1016.4
2022-08-05T00:03:06.508Z,1016.5
2022-08-05T00:04:02.436Z,1016.4
2022-08-05T00:06:03.401Z,1016.4
2022-08-05T00:06:33.608Z,1016.5
2022-08-05T00:08:01.407Z,1016.5
2022-08-05T00:08:03.564Z,1016.4
2022-08-05T00:09:03.484Z,1016.4
2022-08-05T00:10:02.264Z,1016.4
2022-08-05T00:11:02.601Z,1016.4
2022-08-05T00:12:02.718Z,1016.4
2022-08-05T00:13:03.581Z,1016.4
2022-08-05T00:14:16.972Z,1016.4
2022-08-05T00:16:00.228Z,1016.4
2022-08-05T00:16:01.240Z,1016.3
2022-08-05T00:17:03.628Z,1016.3
2022-08-05T00:18:03.165Z,1016.4
2022-08-05T00:19:02.853Z,1016.3
2022-08-05T00:20:03.632Z,1016.3
2022-08-05T00:21:02.454Z,1016.3
2022-08-05T00:22:02.448Z,1016.3
2022-08-05T00:23:13.581Z,1016.3
2022-08-05T00:24:19.089Z,1016.3
2022-08-05T00:25:12.670Z,1016.3
2022-08-05T00:26:02.820Z,1016.3
2022-08-05T00:27:16.983Z,1016.3
2022-08-05T00:28:02.808Z,1016.3
2022-08-05T00:29:02.656Z,1016.3
2022-08-05T00:30:03.802Z,1016.3
2022-08-05T00:31:07.860Z,1016.3
2022-08-05T00:32:16.134Z,1016.3
2022-08-05T00:33:01.976Z,1016.3
2022-08-05T00:35:07.999Z,1016.3
2022-08-05T00:35:08.130Z,1016.2
2022-08-05T00:37:20.647Z,1016.2
2022-08-05T00:37:23.478Z,1016.3
2022-08-05T00:38:03.475Z,1016.2
2022-08-05T00:39:02.493Z,1016.3
2022-08-05T00:40:09.617Z,1016.3
2022-08-05T00:41:02.467Z,1016.3
2022-08-05T00:42:03.311Z,1016.2
2022-08-05T00:43:02.653Z,1016.3
2022-08-05T00:44:02.270Z,1016.2
2022-08-05T00:45:02.388Z,1016.2
2022-08-05T00:46:05.035Z,1016.3
2022-08-05T00:47:06.552Z,1016.2
2022-08-05T00:48:07.406Z,1016.2
2022-08-05T00:49:03.140Z,1016.2
2022-08-05T00:50:03.078Z,1016.2
2022-08-05T00:51:53.406Z,1016.2
2022-08-05T00:52:02.513Z,1016.2
2022-08-05T00:53:02.885Z,1016.2
2022-08-05T00:54:03.728Z,1016.2
2022-08-05T00:55:03.610Z,1016.2
2022-08-05T00:56:02.454Z,1016.2
2022-08-05T00:57:02.384Z,1016.2
2022-08-05T00:58:05.253Z,1016.2
2022-08-05T00:59:07.487Z,1016.2
2022-08-05T01:00:03.430Z,1016.2
2022-08-05T01:01:10.019Z,1016.2
2022-08-05T01:02:02.560Z,1016.2
2022-08-05T01:03:08.469Z,1016.1
2022-08-05T01:04:13.989Z,1016.1
2022-08-05T01:05:10.593Z,1016.1
2022-08-05T01:06:05.924Z,1016.1
2022-08-05T01:07:05.735Z,1016.1
2022-08-05T01:08:44.958Z,1016.1
2022-08-05T01:09:04.122Z,1016.1
2022-08-05T01:10:02.336Z,1016.1
2022-08-05T01:11:01.813Z,1016.1
2022-08-05T01:12:19.422Z,1016
2022-08-05T01:13:27.293Z,1016.1
2022-08-05T01:14:02.181Z,1016.1
2022-08-05T01:15:05.684Z,1016.1
2022-08-05T01:16:05.499Z,1016.1
2022-08-05T01:17:02.524Z,1016
2022-08-05T01:18:02.533Z,1016
2022-08-05T01:19:02.460Z,1016
2022-08-05T01:20:04.224Z,1016
2022-08-05T01:21:02.718Z,1016.1
2022-08-05T01:22:02.880Z,1016
2022-08-05T01:23:23.813Z,1016
2022-08-05T01:24:14.789Z,1016
2022-08-05T01:25:05.139Z,1016
2022-08-05T01:26:02.409Z,1015.9
2022-08-05T01:27:22.353Z,1015.9
2022-08-05T01:28:02.864Z,1015.9
2022-08-05T01:29:06.081Z,1015.9
2022-08-05T01:30:01.896Z,1015.9
2022-08-05T01:31:03.512Z,1015.9
2022-08-05T01:32:12.704Z,1016
2022-08-05T01:33:02.729Z,1015.9
2022-08-05T01:34:02.557Z,1015.9
2022-08-05T01:35:02.621Z,1015.9
2022-08-05T01:36:02.519Z,1015.8
2022-08-05T01:37:02.335Z,1015.9
2022-08-05T01:38:03.828Z,1015.9
2022-08-05T01:39:03.399Z,1015.8
2022-08-05T01:40:02.867Z,1015.9
2022-08-05T01:41:02.877Z,1015.9
2022-08-05T01:42:02.705Z,1015.8
2022-08-05T01:43:04.160Z,1015.8
2022-08-05T01:44:02.999Z,1015.8
2022-08-05T01:45:03.604Z,1015.8
2022-08-05T01:46:46.577Z,1015.7
2022-08-05T01:47:07.022Z,1015.8
2022-08-05T01:48:03.053Z,1015.7
2022-08-05T01:49:25.131Z,1015.8
2022-08-05T01:50:06.322Z,1015.9
2022-08-05T01:51:13.497Z,1015.8
2022-08-05T01:52:19.367Z,1015.8
2022-08-05T01:53:04.167Z,1015.8
2022-08-05T01:54:02.690Z,1015.8
2022-08-05T01:55:05.794Z,1015.8
2022-08-05T01:56:09.184Z,1015.7
2022-08-05T01:58:16.250Z,1015.8
2022-08-05T01:58:16.271Z,1015.8
2022-08-05T01:59:04.905Z,1015.8
2022-08-05T02:00:02.745Z,1015.8
2022-08-05T02:01:01.956Z,1015.7
2022-08-05T02:02:03.679Z,1015.8
2022-08-05T02:03:04.336Z,1015.7
2022-08-05T02:04:02.511Z,1015.7
2022-08-05T02:05:03.600Z,1015.7
2022-08-05T02:06:38.890Z,1015.7
2022-08-05T02:07:06.464Z,1015.8
2022-08-05T02:08:02.464Z,1015.7
2022-08-05T02:09:02.390Z,1015.7
2022-08-05T02:10:02.207Z,1015.7
2022-08-05T02:11:02.316Z,1015.7
2022-08-05T02:12:02.148Z,1015.7
2022-08-05T02:13:16.894Z,1015.7
2022-08-05T02:14:02.368Z,1015.7
2022-08-05T02:15:03.851Z,1015.7
2022-08-05T02:16:03.190Z,1015.7
2022-08-05T02:17:02.133Z,1015.7
2022-08-05T02:18:36.570Z,1015.7
2022-08-05T02:19:07.635Z,1015.7
2022-08-05T02:20:02.592Z,1015.7
2022-08-05T02:21:02.517Z,1015.6
2022-08-05T02:22:02.332Z,1015.6
2022-08-05T02:23:02.357Z,1015.7
2022-08-05T02:24:05.110Z,1015.6
2022-08-05T02:25:01.903Z,1015.7
2022-08-05T02:26:03.777Z,1015.7
2022-08-05T02:28:00.266Z,1015.6
2022-08-05T02:28:01.336Z,1015.6
2022-08-05T02:29:04.533Z,1015.6
2022-08-05T02:30:02.508Z,1015.7
2022-08-05T02:31:02.072Z,1015.6
2022-08-05T02:32:05.438Z,1015.6
2022-08-05T02:33:03.000Z,1015.6
2022-08-05T02:34:01.815Z,1015.5
2022-08-05T02:35:22.166Z,1015.6
2022-08-05T02:36:02.461Z,1015.6
2022-08-05T02:37:04.989Z,1015.6
2022-08-05T02:38:02.969Z,1015.5
2022-08-05T02:39:02.821Z,1015.5
2022-08-05T02:40:04.148Z,1015.6
2022-08-05T02:41:18.177Z,1015.6
2022-08-05T02:42:02.149Z,1015.5
2022-08-05T02:43:02.086Z,1015.5
2022-08-05T02:44:13.870Z,1015.5
2022-08-05T02:45:02.721Z,1015.5
2022-08-05T02:46:02.720Z,1015.5
2022-08-05T02:47:05.838Z,1015.5
2022-08-05T02:48:13.913Z,1015.5
2022-08-05T02:49:02.734Z,1015.5
2022-08-05T02:50:02.696Z,1015.5
2022-08-05T02:51:02.772Z,1015.5
2022-08-05T02:52:05.126Z,1015.5
2022-08-05T02:53:03.870Z,1015.5
2022-08-05T02:54:04.772Z,1015.5
2022-08-05T02:55:12.264Z,1015.5
2022-08-05T02:56:02.937Z,1015.5
2022-08-05T02:57:01.952Z,1015.6
2022-08-05T02:58:22.329Z,1015.6
2022-08-05T02:59:02.274Z,1015.5
2022-08-05T03:00:02.254Z,1015.5
2022-08-05T03:01:02.977Z,1015.5
2022-08-05T03:02:02.539Z,1015.5
2022-08-05T03:03:10.855Z,1015.5
2022-08-05T03:04:14.573Z,1015.5
2022-08-05T03:05:03.898Z,1015.5
2022-08-05T03:07:00.328Z,1015.5
2022-08-05T03:07:01.178Z,1015.5
2022-08-05T03:08:09.878Z,1015.6
2022-08-05T03:09:04.347Z,1015.5
2022-08-05T03:10:02.781Z,1015.4
2022-08-05T03:11:58.626Z,1015.5
2022-08-05T03:12:02.475Z,1015.5
2022-08-05T03:14:04.627Z,1015.5
2022-08-05T03:15:07.069Z,1015.5
2022-08-05T03:16:04.436Z,1015.5
2022-08-05T03:17:09.447Z,1015.5
2022-08-05T03:18:03.794Z,1015.4
2022-08-05T03:19:34.267Z,1015.4
2022-08-05T03:20:02.143Z,1015.4
2022-08-05T03:21:03.639Z,1015.4
2022-08-05T03:22:19.180Z,1015.5
2022-08-05T03:23:05.965Z,1015.4
2022-08-05T03:24:02.958Z,1015.4
2022-08-05T03:26:32.175Z,1015.5
2022-08-05T03:26:32.812Z,1015.5
2022-08-05T03:27:02.664Z,1015.5
2022-08-05T03:28:03.491Z,1015.5
2022-08-05T03:29:04.032Z,1015.4
2022-08-05T03:30:09.489Z,1015.4
2022-08-05T03:31:02.396Z,1015.4
2022-08-05T03:32:02.324Z,1015.4
2022-08-05T03:33:02.715Z,1015.4
2022-08-05T03:34:01.930Z,1015.4
2022-08-05T03:35:05.946Z,1015.4
2022-08-05T03:36:12.379Z,1015.5
2022-08-05T03:37:02.497Z,1015.5
2022-08-05T03:38:02.441Z,1015.5
2022-08-05T03:39:02.915Z,1015.5
2022-08-05T03:40:12.206Z,1015.5
2022-08-05T03:41:11.302Z,1015.4
2022-08-05T03:42:02.498Z,1015.5
2022-08-05T03:44:12.115Z,1015.5
2022-08-05T03:44:12.415Z,1015.5
2022-08-05T03:45:23.856Z,1015.4
2022-08-05T03:46:02.269Z,1015.5
2022-08-05T03:47:04.047Z,1015.4
2022-08-05T03:48:04.586Z,1015.4
2022-08-05T03:49:03.959Z,1015.5
2022-08-05T03:50:01.866Z,1015.5
2022-08-05T03:56:06.371Z,1015.4
2022-08-05T03:56:10.968Z,1015.4
2022-08-05T03:56:14.884Z,1015.5
2022-08-05T03:56:33.180Z,1015.4
2022-08-05T03:56:34.794Z,1015.4
2022-08-05T03:57:18.329Z,1015.4
2022-08-05T03:58:05.529Z,1015.3
2022-08-05T03:59:02.360Z,1015.4
2022-08-05T04:00:02.339Z,1015.4
2022-08-05T04:01:04.682Z,1015.4
2022-08-05T04:02:06.416Z,1015.5
2022-08-05T04:03:02.275Z,1015.5
2022-08-05T04:04:11.236Z,1015.4
2022-08-05T04:05:02.055Z,1015.4
2022-08-05T04:06:02.038Z,1015.4
2022-08-05T04:07:04.454Z,1015.4
2022-08-05T04:08:14.396Z,1015.4
2022-08-05T04:09:06.592Z,1015.4
2022-08-05T04:10:03.766Z,1015.4
2022-08-05T04:11:02.704Z,1015.4
2022-08-05T04:12:02.542Z,1015.4
2022-08-05T04:13:04.904Z,1015.5
2022-08-05T04:14:02.829Z,1015.4
2022-08-05T04:15:04.133Z,1015.5
2022-08-05T04:16:05.344Z,1015.5
2022-08-05T04:17:06.038Z,1015.5
2022-08-05T04:18:01.823Z,1015.5
2022-08-05T04:19:11.084Z,1015.5
2022-08-05T04:20:05.205Z,1015.4
2022-08-05T04:21:04.130Z,1015.4
2022-08-05T04:22:12.600Z,1015.5
2022-08-05T04:23:01.952Z,1015.5
2022-08-05T04:24:19.056Z,1015.4
2022-08-05T04:25:03.921Z,1015.4
2022-08-05T04:26:05.017Z,1015.4
2022-08-05T04:27:02.757Z,1015.4
2022-08-05T04:28:13.501Z,1015.4
2022-08-05T04:29:07.941Z,1015.5
2022-08-05T04:30:04.333Z,1015.5
2022-08-05T04:31:10.846Z,1015.4
2022-08-05T04:32:03.028Z,1015.4
2022-08-05T04:33:02.011Z,1015.4
2022-08-05T04:34:38.623Z,1015.4
2022-08-05T04:35:06.125Z,1015.5
2022-08-05T04:36:50.520Z,1015.4
2022-08-05T04:37:03.778Z,1015.4
2022-08-05T04:38:07.356Z,1015.4
2022-08-05T04:39:03.541Z,1015.5
2022-08-05T04:40:04.159Z,1015.4
2022-08-05T04:41:05.168Z,1015.4
2022-08-05T04:42:04.265Z,1015.4
2022-08-05T04:43:02.093Z,1015.4
2022-08-05T04:44:10.290Z,1015.4
2022-08-05T04:45:03.398Z,1015.4
2022-08-05T04:46:02.388Z,1015.4
2022-08-05T04:47:12.059Z,1015.4
2022-08-05T04:48:01.821Z,1015.3
2022-08-05T04:49:02.797Z,1015.4
2022-08-05T04:50:12.198Z,1015.3
2022-08-05T04:51:11.983Z,1015.3
2022-08-05T04:52:01.914Z,1015.3
2022-08-05T04:53:04.408Z,1015.3
2022-08-05T04:54:02.893Z,1015.3
2022-08-05T04:55:15.701Z,1015.3
2022-08-05T04:56:37.628Z,1015.3
2022-08-05T04:57:02.485Z,1015.3
2022-08-05T04:58:01.946Z,1015.4
2022-08-05T04:59:40.682Z,1015.4
2022-08-05T05:00:02.698Z,1015.3
2022-08-05T05:01:04.833Z,1015.3
2022-08-05T05:02:43.520Z,1015.3
2022-08-05T05:03:04.708Z,1015.2
2022-08-05T05:04:05.090Z,1015.3
2022-08-05T05:05:25.947Z,1015.3
2022-08-05T05:06:57.860Z,1015.2
2022-08-05T05:07:02.856Z,1015.3
2022-08-05T05:08:03.020Z,1015.3
2022-08-05T05:09:05.971Z,1015.3
2022-08-05T05:10:03.506Z,1015.3
2022-08-05T05:11:02.344Z,1015.3
2022-08-05T05:12:03.627Z,1015.3
2022-08-05T05:13:04.974Z,1015.3
2022-08-05T05:14:02.601Z,1015.3
2022-08-05T05:15:04.458Z,1015.4
2022-08-05T05:16:07.633Z,1015.4
2022-08-05T05:17:09.284Z,1015.3
2022-08-05T05:18:02.814Z,1015.4
2022-08-05T05:19:36.661Z,1015.4
2022-08-05T05:20:05.800Z,1015.4
2022-08-05T05:21:03.526Z,1015.4
2022-08-05T05:22:27.100Z,1015.4
2022-08-05T05:23:20.387Z,1015.4
2022-08-05T05:24:09.663Z,1015.4
2022-08-05T05:25:17.904Z,1015.4
2022-08-05T05:26:02.767Z,1015.4
2022-08-05T05:27:02.718Z,1015.3
2022-08-05T05:28:01.784Z,1015.4
2022-08-05T05:29:14.817Z,1015.4
2022-08-05T05:30:05.748Z,1015.4
2022-08-05T05:31:09.137Z,1015.5
2022-08-05T05:32:04.368Z,1015.5
2022-08-05T05:33:17.802Z,1015.5
2022-08-05T05:34:03.299Z,1015.5
2022-08-05T05:35:06.229Z,1015.5
2022-08-05T05:36:02.069Z,1015.6
2022-08-05T05:37:06.107Z,1015.5
2022-08-05T05:38:02.954Z,1015.5
2022-08-05T05:39:10.549Z,1015.5
2022-08-05T05:40:03.006Z,1015.6
2022-08-05T05:41:02.287Z,1015.5
2022-08-05T05:42:02.568Z,1015.5
2022-08-05T05:43:02.666Z,1015.6
2022-08-05T05:44:02.486Z,1015.6
2022-08-05T05:45:04.084Z,1015.5
2022-08-05T05:46:02.738Z,1015.5
2022-08-05T05:47:22.335Z,1015.6
2022-08-05T05:48:09.153Z,1015.6
2022-08-05T05:49:23.332Z,1015.5
2022-08-05T05:50:04.697Z,1015.5
2022-08-05T05:51:16.378Z,1015.5
2022-08-05T05:52:07.711Z,1015.5
2022-08-05T05:53:23.013Z,1015.5
2022-08-05T05:54:01.901Z,1015.5
2022-08-05T05:55:14.039Z,1015.5
2022-08-05T05:56:03.762Z,1015.5
2022-08-05T05:57:03.202Z,1015.6
2022-08-05T05:58:04.955Z,1015.6
2022-08-05T05:59:06.165Z,1015.5
2022-08-05T06:00:04.496Z,1015.5
2022-08-05T06:01:16.117Z,1015.5
2022-08-05T06:02:02.552Z,1015.5
2022-08-05T06:03:02.474Z,1015.5
2022-08-05T06:04:04.835Z,1015.4
2022-08-05T06:05:17.307Z,1015.4
2022-08-05T06:06:04.121Z,1015.5
2022-08-05T06:07:02.232Z,1015.5
2022-08-05T06:08:04.471Z,1015.4
2022-08-05T06:09:04.494Z,1015.4
2022-08-05T06:10:10.648Z,1015.4
2022-08-05T06:11:04.555Z,1015.4
2022-08-05T06:12:03.507Z,1015.4
2022-08-05T06:13:02.437Z,1015.4
2022-08-05T06:14:02.730Z,1015.4
2022-08-05T06:15:02.591Z,1015.4
2022-08-05T06:16:36.651Z,1015.4
2022-08-05T06:17:31.263Z,1015.5
2022-08-05T06:18:02.097Z,1015.4
2022-08-05T06:19:08.226Z,1015.4
2022-08-05T06:20:02.107Z,1015.5
2022-08-05T06:21:02.037Z,1015.5
2022-08-05T06:22:01.858Z,1015.5
2022-08-05T06:23:04.612Z,1015.4
2022-08-05T06:24:03.415Z,1015.5
2022-08-05T06:26:21.092Z,1015.5
2022-08-05T06:26:25.363Z,1015.5
2022-08-05T06:27:04.604Z,1015.4
2022-08-05T06:28:22.100Z,1015.5
2022-08-05T06:29:54.483Z,1015.5
2022-08-05T06:30:21.563Z,1015.4
2022-08-05T06:31:22.203Z,1015.5
2022-08-05T06:32:03.621Z,1015.4
2022-08-05T06:33:03.025Z,1015.4
2022-08-05T06:34:09.455Z,1015.4
2022-08-05T06:35:21.970Z,1015.4
2022-08-05T06:36:10.521Z,1015.5
2022-08-05T06:37:02.341Z,1015.5
2022-08-05T06:38:12.263Z,1015.4
2022-08-05T06:39:04.084Z,1015.5
2022-08-05T06:40:03.075Z,1015.5
2022-08-05T06:41:03.733Z,1015.4
2022-08-05T06:42:04.797Z,1015.5
2022-08-05T06:43:02.661Z,1015.5
2022-08-05T06:44:03.259Z,1015.4
2022-08-05T06:45:09.507Z,1015.5
2022-08-05T06:46:07.882Z,1015.5
2022-08-05T06:47:04.208Z,1015.4
2022-08-05T06:48:59.850Z,1015.4
2022-08-05T06:49:07.886Z,1015.5
2022-08-05T06:50:06.095Z,1015.5
2022-08-05T06:51:28.259Z,1015.5
2022-08-05T06:52:02.225Z,1015.5
2022-08-05T06:53:29.113Z,1015.5
2022-08-05T06:54:03.012Z,1015.4
2022-08-05T06:55:02.999Z,1015.4
2022-08-05T06:56:01.919Z,1015.4
2022-08-05T06:58:36.628Z,1015.4
2022-08-05T06:58:36.865Z,1015.5
2022-08-05T06:59:03.027Z,1015.4
2022-08-05T07:00:05.153Z,1015.4
2022-08-05T07:01:02.811Z,1015.4
2022-08-05T07:02:02.749Z,1015.5
2022-08-05T07:03:01.994Z,1015.4
2022-08-05T07:04:03.405Z,1015.4
2022-08-05T07:05:02.266Z,1015.4
2022-08-05T07:06:15.462Z,1015.4
2022-08-05T07:07:02.455Z,1015.4
2022-08-05T07:08:04.555Z,1015.4
2022-08-05T07:09:05.105Z,1015.3
2022-08-05T07:10:04.052Z,1015.4
2022-08-05T07:11:02.571Z,1015.4
2022-08-05T07:12:02.730Z,1015.4
2022-08-05T07:13:02.722Z,1015.3
2022-08-05T07:14:02.563Z,1015.4
2022-08-05T07:15:03.934Z,1015.4
2022-08-05T07:16:05.224Z,1015.3
2022-08-05T07:18:12.531Z,1015.4
2022-08-05T07:18:27.379Z,1015.3
2022-08-05T07:19:02.390Z,1015.4
2022-08-05T07:20:38.992Z,1015.4
2022-08-05T07:21:06.018Z,1015.4
2022-08-05T07:22:03.221Z,1015.4
2022-08-05T07:23:04.987Z,1015.4
2022-08-05T07:24:02.977Z,1015.4
2022-08-05T07:25:57.020Z,1015.4
2022-08-05T07:26:02.678Z,1015.5
2022-08-05T07:27:09.238Z,1015.4
2022-08-05T07:28:12.116Z,1015.5
2022-08-05T07:29:02.580Z,1015.5
2022-08-05T07:30:33.557Z,1015.5
2022-08-05T07:31:03.011Z,1015.5
2022-08-05T07:32:05.894Z,1015.5
2022-08-05T07:33:15.870Z,1015.5
2022-08-05T07:34:02.934Z,1015.4
2022-08-05T07:36:22.001Z,1015.5
2022-08-05T07:36:22.183Z,1015.5
2022-08-05T07:37:01.981Z,1015.5
2022-08-05T07:38:01.919Z,1015.5
2022-08-05T07:39:06.358Z,1015.4
2022-08-05T07:40:33.576Z,1015.4
2022-08-05T07:42:15.578Z,1015.4
2022-08-05T07:42:16.497Z,1015.4
2022-08-05T07:43:21.411Z,1015.4
2022-08-05T07:44:04.063Z,1015.5
2022-08-05T07:45:01.979Z,1015.5
2022-08-05T07:46:03.883Z,1015.5
2022-08-05T07:47:10.357Z,1015.5
2022-08-05T07:48:03.157Z,1015.4
2022-08-05T07:49:08.198Z,1015.4
2022-08-05T07:50:07.259Z,1015.4
2022-08-05T07:51:02.083Z,1015.4
2022-08-05T07:52:02.382Z,1015.4
2022-08-05T07:53:04.834Z,1015.4
2022-08-05T07:54:02.496Z,1015.4
2022-08-05T07:56:05.024Z,1015.4
2022-08-05T07:57:16.837Z,1015.4
2022-08-05T07:58:03.903Z,1015.4
2022-08-05T07:58:04.569Z,1015.4
2022-08-05T07:59:02.224Z,1015.4
2022-08-05T08:00:02.020Z,1015.5
2022-08-05T08:01:15.778Z,1015.4
2022-08-05T08:02:03.689Z,1015.4
2022-08-05T08:03:16.350Z,1015.4
2022-08-05T08:04:02.171Z,1015.4
2022-08-05T08:05:04.237Z,1015.4
2022-08-05T08:06:02.824Z,1015.4
2022-08-05T08:07:07.911Z,1015.4
2022-08-05T08:08:02.749Z,1015.5
2022-08-05T08:09:05.843Z,1015.4
2022-08-05T08:10:02.717Z,1015.4
2022-08-05T08:11:02.762Z,1015.4
2022-08-05T08:12:48.378Z,1015.5
2022-08-05T08:13:02.661Z,1015.5
2022-08-05T08:14:04.221Z,1015.4
2022-08-05T08:15:04.760Z,1015.5
2022-08-05T08:16:53.414Z,1015.5
2022-08-05T08:17:02.457Z,1015.5
2022-08-05T08:18:14.579Z,1015.5
2022-08-05T08:19:02.780Z,1015.5
2022-08-05T08:21:03.972Z,1015.4
2022-08-05T08:21:17.938Z,1015.4
2022-08-05T08:22:01.882Z,1015.5
2022-08-05T08:23:03.724Z,1015.4
2022-08-05T08:24:14.000Z,1015.4
2022-08-05T08:25:17.808Z,1015.4
2022-08-05T08:26:05.187Z,1015.4
2022-08-05T08:27:07.722Z,1015.5
2022-08-05T08:28:02.082Z,1015.4
2022-08-05T08:30:27.717Z,1015.5
2022-08-05T08:30:39.293Z,1015.5
2022-08-05T08:31:04.905Z,1015.4
2022-08-05T08:32:11.164Z,1015.5
2022-08-05T08:33:08.660Z,1015.5
2022-08-05T08:34:02.670Z,1015.5
2022-08-05T08:35:03.394Z,1015.4
2022-08-05T08:36:54.803Z,1015.4
2022-08-05T08:37:05.858Z,1015.5
2022-08-05T08:38:02.790Z,1015.5
2022-08-05T08:39:04.474Z,1015.6
2022-08-05T08:40:05.663Z,1015.5
2022-08-05T08:41:04.329Z,1015.5
2022-08-05T08:42:22.504Z,1015.5
2022-08-05T08:45:29.570Z,1015.5
2022-08-05T08:46:02.239Z,1015.6
2022-08-05T08:47:03.199Z,1015.5
2022-08-05T08:50:08.128Z,1015.5
2022-08-05T08:51:04.394Z,1015.5
2022-08-05T08:52:06.223Z,1015.5
2022-08-05T08:52:06.440Z,1015.5
2022-08-05T08:52:14.111Z,1015.5
2022-08-05T08:53:12.618Z,1015.5
2022-08-05T08:54:03.127Z,1015.5
2022-08-05T08:55:13.626Z,1015.6
2022-08-05T08:56:06.927Z,1015.5
2022-08-05T08:57:03.351Z,1015.5
2022-08-05T08:58:03.736Z,1015.6
2022-08-05T08:59:21.067Z,1015.6
2022-08-05T09:00:04.883Z,1015.5
2022-08-05T09:01:04.221Z,1015.5
2022-08-05T09:02:02.226Z,1015.5
2022-08-05T09:03:02.050Z,1015.5
2022-08-05T09:04:02.028Z,1015.5
2022-08-05T09:06:08.250Z,1015.5
2022-08-05T09:06:21.012Z,1015.5
2022-08-05T09:07:39.666Z,1015.5
2022-08-05T09:08:02.754Z,1015.5
2022-08-05T09:09:02.724Z,1015.5
2022-08-05T09:10:02.650Z,1015.5
2022-08-05T09:11:02.306Z,1015.5
2022-08-05T09:12:28.060Z,1015.5
2022-08-05T09:13:08.255Z,1015.5
2022-08-05T09:15:06.745Z,1015.5
2022-08-05T09:15:07.020Z,1015.5
2022-08-05T09:16:02.949Z,1015.5
2022-08-05T09:17:09.312Z,1015.4
2022-08-05T09:18:03.457Z,1015.4
2022-08-05T09:19:07.555Z,1015.4
2022-08-05T09:20:06.105Z,1015.3
2022-08-05T09:21:02.270Z,1015.4
2022-08-05T09:22:33.388Z,1015.4
2022-08-05T09:23:09.760Z,1015.3
2022-08-05T09:24:06.983Z,1015.3
2022-08-05T09:25:01.851Z,1015.3
2022-08-05T09:26:09.495Z,1015.3
2022-08-05T09:27:03.079Z,1015.2
2022-08-05T09:28:06.856Z,1015.3
2022-08-05T09:29:02.681Z,1015.3
2022-08-05T09:30:07.112Z,1015.2
2022-08-05T09:32:45.583Z,1015.2
2022-08-05T09:32:47.150Z,1015.2
2022-08-05T09:33:04.945Z,1015.2
2022-08-05T09:34:02.159Z,1015.2
2022-08-05T09:35:03.172Z,1015.2
2022-08-05T09:36:16.894Z,1015.2
2022-08-05T09:37:02.762Z,1015.2
2022-08-05T09:38:29.556Z,1015.1
2022-08-05T09:39:03.215Z,1015.2
2022-08-05T09:40:02.284Z,1015.2
2022-08-05T09:41:04.501Z,1015.2
2022-08-05T09:42:03.969Z,1015.2
2022-08-05T09:43:08.728Z,1015.2
2022-08-05T09:44:02.101Z,1015.2
2022-08-05T09:46:09.082Z,1015.2
2022-08-05T09:46:09.179Z,1015.2
2022-08-05T09:47:15.998Z,1015.2
2022-08-05T09:48:02.196Z,1015.2
2022-08-05T09:49:20.045Z,1015.2
2022-08-05T09:50:04.066Z,1015.2
2022-08-05T09:51:01.895Z,1015.2
2022-08-05T09:52:02.865Z,1015.1
2022-08-05T09:53:02.377Z,1015.1
2022-08-05T09:54:02.705Z,1015.1
2022-08-05T09:56:12.810Z,1015.2
2022-08-05T09:56:13.916Z,1015.1
2022-08-05T09:57:02.848Z,1015.1
2022-08-05T09:58:03.381Z,1015.2
2022-08-05T09:59:04.688Z,1015.2
2022-08-05T10:00:08.603Z,1015.2
2022-08-05T10:01:32.228Z,1015.1
2022-08-05T10:02:02.538Z,1015.1
2022-08-05T10:03:03.169Z,1015.1
2022-08-05T10:04:03.858Z,1015.1
2022-08-05T10:05:08.241Z,1015
2022-08-05T10:06:15.876Z,1015.1
2022-08-05T10:07:32.069Z,1015.1
2022-08-05T10:08:38.410Z,1015.1
2022-08-05T10:09:03.570Z,1015
2022-08-05T10:10:18.184Z,1015
2022-08-05T10:11:03.309Z,1015.1
2022-08-05T10:12:34.225Z,1015.1
2022-08-05T10:13:10.341Z,1015
2022-08-05T10:14:02.279Z,1015
2022-08-05T10:15:02.153Z,1015
2022-08-05T10:16:02.576Z,1015
2022-08-05T10:17:37.106Z,1015
2022-08-05T10:18:02.086Z,1015
2022-08-05T10:19:10.307Z,1015
2022-08-05T10:20:11.362Z,1015
2022-08-05T10:21:16.624Z,1015
2022-08-05T10:22:04.112Z,1015.1
2022-08-05T10:23:03.573Z,1015
2022-08-05T10:24:11.229Z,1015
2022-08-05T10:25:02.132Z,1015
2022-08-05T10:26:02.088Z,1015
2022-08-05T10:27:03.515Z,1015
2022-08-05T10:28:30.443Z,1015
2022-08-05T10:29:02.686Z,1014.9
2022-08-05T10:33:00.674Z,1014.9
2022-08-05T10:33:03.090Z,1014.9
2022-08-05T10:33:03.092Z,1014.9
2022-08-05T10:34:03.906Z,1014.9
2022-08-05T10:35:02.722Z,1014.9
2022-08-05T10:36:03.004Z,1014.9
2022-08-05T10:37:02.077Z,1014.8
2022-08-05T10:38:02.457Z,1014.9
2022-08-05T10:39:59.589Z,1014.9
2022-08-05T10:40:19.878Z,1014.9
2022-08-05T10:41:06.425Z,1015
2022-08-05T10:42:03.172Z,1014.9
2022-08-05T10:43:02.000Z,1014.9
2022-08-05T10:44:07.248Z,1014.9
2022-08-05T10:45:21.700Z,1014.9
2022-08-05T10:46:07.535Z,1014.9
2022-08-05T10:47:31.451Z,1014.8
2022-08-05T10:48:40.715Z,1014.9
2022-08-05T10:49:17.066Z,1014.9
2022-08-05T10:50:37.565Z,1014.8
2022-08-05T10:51:04.556Z,1014.9
2022-08-05T10:52:10.422Z,1014.9
2022-08-05T10:53:04.215Z,1014.8
2022-08-05T10:54:37.748Z,1014.9
2022-08-05T10:55:02.737Z,1014.8
2022-08-05T10:56:26.388Z,1014.8
2022-08-05T10:57:02.878Z,1014.8
2022-08-05T10:58:02.804Z,1014.8
2022-08-05T11:00:08.296Z,1014.8
2022-08-05T11:00:20.357Z,1014.8
2022-08-05T11:01:03.704Z,1014.8
2022-08-05T11:02:06.106Z,1014.9
2022-08-05T11:03:27.467Z,1014.8
2022-08-05T11:04:02.508Z,1014.8
2022-08-05T11:05:02.914Z,1014.8
2022-08-05T11:06:04.934Z,1014.8
2022-08-05T11:07:04.429Z,1014.8
2022-08-05T11:08:39.316Z,1014.8
2022-08-05T11:09:02.958Z,1014.8
2022-08-05T11:10:10.439Z,1014.9
2022-08-05T11:11:17.122Z,1014.8
2022-08-05T11:12:02.325Z,1014.8
2022-08-05T11:13:02.524Z,1014.8
2022-08-05T11:14:05.122Z,1014.7
2022-08-05T11:15:21.680Z,1014.8
2022-08-05T11:16:02.651Z,1014.7
2022-08-05T11:18:06.121Z,1014.7
2022-08-05T11:18:11.759Z,1014.7
2022-08-05T11:20:18.684Z,1014.8
2022-08-05T11:20:18.943Z,1014.7
2022-08-05T11:21:02.437Z,1014.7
2022-08-05T11:22:03.794Z,1014.7
2022-08-05T11:23:10.770Z,1014.7
2022-08-05T11:24:31.411Z,1014.8
2022-08-05T11:26:09.458Z,1014.7
2022-08-05T11:26:10.158Z,1014.8
2022-08-05T11:27:02.048Z,1014.7
2022-08-05T11:28:04.174Z,1014.8
2022-08-05T11:29:14.781Z,1014.7
2022-08-05T11:30:02.619Z,1014.7
2022-08-05T11:31:07.733Z,1014.7
2022-08-05T11:32:04.025Z,1014.7
2022-08-05T11:33:20.894Z,1014.7
2022-08-05T11:34:08.377Z,1014.7
2022-08-05T11:35:02.220Z,1014.7
2022-08-05T11:36:09.375Z,1014.7
2022-08-05T11:38:51.183Z,1014.7
2022-08-05T11:38:51.419Z,1014.7
2022-08-05T11:39:02.464Z,1014.7
2022-08-05T11:40:05.034Z,1014.7
2022-08-05T11:42:04.636Z,1014.7
2022-08-05T11:42:05.204Z,1014.7
2022-08-05T11:43:06.303Z,1014.7
2022-08-05T11:44:08.828Z,1014.7
2022-08-05T11:45:03.453Z,1014.7
2022-08-05T11:46:35.136Z,1014.8
2022-08-05T11:47:22.023Z,1014.8
2022-08-05T11:48:03.835Z,1014.8
2022-08-05T11:49:02.739Z,1014.7
2022-08-05T11:50:03.691Z,1014.7
2022-08-05T11:51:01.827Z,1014.7
2022-08-05T11:52:13.292Z,1014.7
2022-08-05T11:53:10.233Z,1014.7
2022-08-05T11:54:02.865Z,1014.7
2022-08-05T11:55:10.981Z,1014.7
2022-08-05T11:56:11.515Z,1014.7
2022-08-05T11:57:27.278Z,1014.9
2022-08-05T11:58:12.535Z,1014.8
2022-08-05T11:59:02.500Z,1014.8
2022-08-05T12:00:03.399Z,1014.8
2022-08-05T12:01:10.671Z,1014.8
2022-08-05T12:02:02.475Z,1014.8
2022-08-05T12:03:02.640Z,1014.7
2022-08-05T12:04:04.003Z,1014.7
2022-08-05T12:05:18.855Z,1014.7
2022-08-05T12:06:02.713Z,1014.6
2022-08-05T12:07:02.634Z,1014.7
2022-08-05T12:08:11.904Z,1014.6
2022-08-05T12:09:02.552Z,1014.7
2022-08-05T12:10:12.527Z,1014.6
2022-08-05T12:11:06.719Z,1014.6
2022-08-05T12:12:04.215Z,1014.6
2022-08-05T12:13:16.972Z,1014.7
2022-08-05T12:14:04.974Z,1014.5
2022-08-05T12:15:03.693Z,1014.5
2022-08-05T12:16:02.053Z,1014.5
2022-08-05T12:18:04.486Z,1014.5
2022-08-05T12:18:12.528Z,1014.5
2022-08-05T12:19:02.427Z,1014.6
2022-08-05T12:20:33.985Z,1014.6
2022-08-05T12:21:03.929Z,1014.6
2022-08-05T12:22:02.755Z,1014.6
2022-08-05T12:23:05.417Z,1014.7
2022-08-05T12:24:07.618Z,1014.7
2022-08-05T12:25:02.569Z,1014.6
2022-08-05T12:26:02.544Z,1014.6
2022-08-05T12:27:25.859Z,1014.6
2022-08-05T12:28:02.972Z,1014.6
2022-08-05T12:29:03.838Z,1014.6
2022-08-05T12:30:03.990Z,1014.6
2022-08-05T12:31:03.167Z,1014.6
2022-08-05T12:32:09.528Z,1014.6
2022-08-05T12:33:38.739Z,1014.6
2022-08-05T12:34:03.664Z,1014.5
2022-08-05T12:35:04.673Z,1014.5